Senador Jose Porfirio, Brazil
Current Conditions -  °F | °C
As of 8:35 AM on Thursday 23 Oct 2014 (Local Time) from SBHT Reporting Station
Moderate Rain Moderate Rain  
Wind Chill: 77°   Ceiling: 1000
Heat Index: 78°   Visibility: 1.8mi
Dew Point: 77°   Wind: 3mph
Humidity: 100%   Direction: 180°S
Pressure: 29.97"   Gusts: NA
Location:  2.58°S, 51.92°W
Report Text: SBHT 231135Z 18003KT 3000 RA BKN010 BKN080 25/25 Q1015
Loading
Personal Weather Stations






























Interactive Weather Map
Tropical Storm Tracking
New forecast layout! Learn more

10-Day Weather Forecast

Advertisements
Track Severe Weather on mobile